»·PEaware :: QXE2323 KBOI-KSLC

QXE2323 :: KBOI-KSLC

FLIGHT INFORMATION

Flight Status: Arrived
Operator:
Horizon Air
More flights by this operator :: More flights under this callsign
Pilot: Ernest M. (83)
Aircraft: DEHAVILLAND DASH 8 400
(DH8D)
More flights by this aircraft type
Origin: KBOI Boise Air Terminal/Gowen
United States
Destination: KSLC Salt Lake City Intl
United States
More flights between these airports :: More routes between these airports
Route: +BOI3 ROARR BYI SKEES5
File this flight plan on PilotEdge
Remarks:
Altitude:
(Current/Filed)
23,000ft
Speed:
(Current/Filed)
400kts
Departed: 23-Mar-19 09:06 AM
Arrived: 23-Mar-19 10:18 AM
Distance/Time
Traveled:
251nm/1:12
Distance/Time
To Go:
Arrived

Flight Plot

Page will automatically refresh every two minutes.

Flight plan parsing failed; only flown route is shown


Map Options




Map Legend


Flown Route
Filed Route
Departure Airport
Arrival Airport
Navaid (VOR, NDB)
Fix

Horizontal Profiles

Position Reports

Time Latitude Longitude Heading Altitude Ground
Speed
23-Mar-19 08:52 43.567182 -116.222717 100 2847ft 0kts
23-Mar-19 08:53 43.567182 -116.222717 100 2847ft 0kts
23-Mar-19 08:54 43.567182 -116.222717 100 2847ft 0kts
23-Mar-19 08:56 43.567212 -116.222946 100 2847ft 4kts
23-Mar-19 08:57 43.567265 -116.223359 100 2846ft 0kts
23-Mar-19 08:58 43.567265 -116.223359 100 2846ft 0kts
23-Mar-19 08:59 43.567265 -116.223359 100 2846ft 0kts
23-Mar-19 09:00 43.567100 -116.224269 293 2846ft 10kts
23-Mar-19 09:01 43.568174 -116.227443 295 2843ft 10kts
23-Mar-19 09:02 43.569450 -116.231163 295 2836ft 14kts
23-Mar-19 09:03 43.570832 -116.235197 291 2830ft 9kts
23-Mar-19 09:04 43.570989 -116.235953 270 2829ft 0kts
23-Mar-19 09:05 43.570660 -116.236472 203 2828ft 13kts
23-Mar-19 09:06 43.564577 -116.220406 115 2852ft 147kts
23-Mar-19 09:07 43.549211 -116.175172 115 4195ft 172kts
23-Mar-19 09:08 43.532445 -116.126036 118 5571ft 189kts
23-Mar-19 09:09 43.514044 -116.070455 114 7046ft 204kts
23-Mar-19 09:10 43.496535 -116.008512 113 8510ft 217kts
23-Mar-19 09:11 43.472760 -115.942266 121 10129ft 224kts
23-Mar-19 09:12 43.442139 -115.882280 130 11739ft 227kts
23-Mar-19 09:13 43.425289 -115.820718 108 13118ft 230kts
23-Mar-19 09:14 43.410651 -115.756805 108 14516ft 232kts
23-Mar-19 09:15 43.396235 -115.691981 108 15882ft 233kts
23-Mar-19 09:15 43.384522 -115.637748 108 16955ft 233kts
23-Mar-19 09:16 43.368784 -115.573939 111 18142ft 232kts
23-Mar-19 09:17 43.350926 -115.511600 117 19225ft 230kts
23-Mar-19 09:19 43.321854 -115.442887 124 20400ft 228kts
23-Mar-19 09:19 43.300278 -115.393961 124 21169ft 228kts
23-Mar-19 09:20 43.273128 -115.341296 132 21962ft 226kts
23-Mar-19 09:21 43.244652 -115.292813 132 22666ft 225kts
23-Mar-19 09:22 43.215236 -115.242325 132 23326ft 225kts
23-Mar-19 09:23 43.183675 -115.187932 132 23602ft 242kts
23-Mar-19 09:24 43.149953 -115.130246 132 23598ft 267kts
23-Mar-19 09:25 43.112735 -115.066943 132 23594ft 288kts
23-Mar-19 09:26 43.071999 -114.998212 132 23591ft 306kts
23-Mar-19 09:27 43.028532 -114.925503 132 23590ft 320kts
23-Mar-19 09:28 42.983685 -114.849782 132 23588ft 331kts
23-Mar-19 09:29 42.937328 -114.770131 132 23586ft 338kts
23-Mar-19 09:30 42.893261 -114.693054 132 23588ft 343kts
23-Mar-19 09:31 42.850132 -114.616666 132 23590ft 348kts
23-Mar-19 09:32 42.804146 -114.535107 132 23590ft 350kts
23-Mar-19 09:33 42.755204 -114.454295 134 23589ft 351kts
23-Mar-19 09:34 42.707194 -114.377788 134 23590ft 352kts
23-Mar-19 09:35 42.663384 -114.307188 134 23588ft 353kts
23-Mar-19 09:36 42.618663 -114.234230 135 23589ft 353kts
23-Mar-19 09:37 42.572993 -114.161349 135 23591ft 353kts
23-Mar-19 09:38 42.525476 -114.085480 135 23589ft 353kts
23-Mar-19 09:39 42.477915 -114.009486 135 23583ft 353kts
23-Mar-19 09:40 42.429580 -113.932216 135 23575ft 354kts
23-Mar-19 09:41 42.380713 -113.854106 134 23576ft 354kts
23-Mar-19 09:42 42.332456 -113.776904 134 23576ft 354kts
23-Mar-19 09:43 42.282556 -113.697084 134 23576ft 354kts
23-Mar-19 09:44 42.233101 -113.617942 134 23576ft 354kts
23-Mar-19 09:45 42.183290 -113.538202 134 23576ft 354kts
23-Mar-19 09:46 42.134041 -113.459275 134 23577ft 354kts
23-Mar-19 09:47 42.084810 -113.380339 134 23577ft 355kts
23-Mar-19 09:48 42.040892 -113.309920 135 23572ft 354kts
23-Mar-19 09:49 41.992638 -113.232464 134 23572ft 354kts
23-Mar-19 09:50 41.943299 -113.153477 134 22998ft 367kts
23-Mar-19 09:51 41.895222 -113.077243 134 21957ft 358kts
23-Mar-19 09:52 41.852576 -113.009975 134 21038ft 357kts
23-Mar-19 09:53 41.806558 -112.938715 134 20186ft 374kts
23-Mar-19 09:54 41.758638 -112.866641 134 19432ft 384kts
23-Mar-19 09:55 41.709323 -112.795025 134 18698ft 382kts
23-Mar-19 09:56 41.659061 -112.722320 130 18027ft 385kts
23-Mar-19 09:57 41.612932 -112.650139 131 17303ft 366kts
23-Mar-19 09:58 41.566718 -112.577902 131 16638ft 344kts
23-Mar-19 09:59 41.528150 -112.515675 128 16616ft 313kts
23-Mar-19 10:00 41.491344 -112.463266 144 16627ft 280kts
23-Mar-19 10:01 41.452522 -112.422716 140 16614ft 256kts
23-Mar-19 10:02 41.421405 -112.379856 131 16608ft 233kts
23-Mar-19 10:03 41.389176 -112.340211 141 15303ft 300kts
23-Mar-19 10:04 41.341727 -112.287916 141 13785ft 361kts
23-Mar-19 10:05 41.293904 -112.235629 141 12436ft 352kts
23-Mar-19 10:06 41.246122 -112.183509 141 11683ft 318kts
23-Mar-19 10:07 41.206485 -112.139828 142 11707ft 263kts
23-Mar-19 10:08 41.165133 -112.093689 141 9974ft 288kts
23-Mar-19 10:09 41.115401 -112.038563 141 8589ft 286kts
23-Mar-19 10:10 41.069949 -111.994554 174 8582ft 251kts
23-Mar-19 10:11 41.010469 -111.996349 188 8167ft 293kts
23-Mar-19 10:12 40.951428 -112.006060 188 8135ft 288kts
23-Mar-19 10:13 40.899484 -112.008611 179 7261ft 282kts
23-Mar-19 10:14 40.847206 -112.003887 175 5360ft 221kts
23-Mar-19 10:15 40.810807 -111.999652 173 4651ft 120kts
23-Mar-19 10:16 40.788062 -111.996981 175 4222ft 55kts
23-Mar-19 10:17 40.784278 -111.993128 77 4222ft 15kts
23-Mar-19 10:18 40.785582 -111.992192 355 4222ft 6kts
23-Mar-19 10:19 40.786753 -111.990063 95 4222ft 24kts
23-Mar-19 10:20 40.786502 -111.987702 141 4222ft 0kts
23-Mar-19 10:21 40.786502 -111.987702 141 4222ft 0kts

Navigation Log

Ident Type
Flight plan parsing failed, navigation log unavailable